<?xml version="1.0" encoding="UTF-8" standalone="no" ?><gpx xmlns="http://www.topografix.com/GPX/1/1" xmlns:gpxx="http://www.garmin.com/xmlschemas/GpxExtensions/v3" xmlns:gpxtpx="http://www.garmin.com/xmlschemas/TrackPointExtension/v1" creator="Foretrex 301" version="1.1" xmlns:xsi="http://www.w3.org/2001/XMLSchema-instance" xsi:schemaLocation="http://www.topografix.com/GPX/1/1 http://www.topografix.com/GPX/1/1/gpx.xsd http://www.garmin.com/xmlschemas/GpxExtensions/v3 http://www.garmin.com/xmlschemas/GpxExtensions/v3/GpxExtensionsv3.xsd"><metadata><link href="http://www.garmin.com"><text>Garmin International</text></link><time>2011-01-26T19:14:48Z</time></metadata><trk><name>ACTIVE LOG: 26 JAN 2011 09:53</name><trkseg><trkpt lat="52.002240" lon="-1.861110"><ele>232.78</ele><time>2011-01-26T09:53:45Z</time></trkpt><trkpt lat="52.002261" lon="-1.861180"><ele>231.33</ele><time>2011-01-26T09:54:13Z</time></trkpt><trkpt lat="52.002261" lon="-1.861170"><ele>232.30</ele><time>2011-01-26T09:55:07Z</time></trkpt><trkpt lat="52.002255" lon="-1.861137"><ele>232.30</ele><time>2011-01-26T09:56:14Z</time></trkpt><trkpt lat="52.002243" lon="-1.861178"><ele>232.30</ele><time>2011-01-26T09:56:35Z</time></trkpt><trkpt lat="52.002240" lon="-1.861177"><ele>233.74</ele><time>2011-01-26T09:57:15Z</time></trkpt><trkpt lat="52.002194" lon="-1.861098"><ele>232.30</ele><time>2011-01-26T09:57:38Z</time></trkpt><trkpt lat="52.002124" lon="-1.861014"><ele>233.26</ele><time>2011-01-26T09:57:52Z</time></trkpt><trkpt lat="52.002111" lon="-1.861036"><ele>235.66</ele><time>2011-01-26T09:58:10Z</time></trkpt><trkpt lat="52.002115" lon="-1.861045"><ele>235.66</ele><time>2011-01-26T09:58:31Z</time></trkpt><trkpt lat="52.002118" lon="-1.861125"><ele>235.66</ele><time>2011-01-26T09:58:45Z</time></trkpt><trkpt lat="52.002116" lon="-1.861203"><ele>235.18</ele><time>2011-01-26T09:58:57Z</time></trkpt><trkpt lat="52.002132" lon="-1.861186"><ele>235.66</ele><time>2011-01-26T09:59:16Z</time></trkpt><trkpt lat="52.002148" lon="-1.861091"><ele>235.66</ele><time>2011-01-26T09:59:36Z</time></trkpt><trkpt lat="52.002137" lon="-1.861050"><ele>235.18</ele><time>2011-01-26T09:59:56Z</time></trkpt><trkpt lat="52.002147" lon="-1.861143"><ele>234.70</ele><time>2011-01-26T10:00:23Z</time></trkpt><trkpt lat="52.002114" lon="-1.861019"><ele>234.22</ele><time>2011-01-26T10:00:36Z</time></trkpt><trkpt lat="52.002118" lon="-1.861014"><ele>235.18</ele><time>2011-01-26T10:01:28Z</time></trkpt><trkpt lat="52.002073" lon="-1.860935"><ele>234.70</ele><time>2011-01-26T10:01:52Z</time></trkpt><trkpt lat="52.002030" lon="-1.860830"><ele>236.14</ele><time>2011-01-26T10:02:04Z</time></trkpt><trkpt lat="52.002022" lon="-1.860678"><ele>237.10</ele><time>2011-01-26T10:02:17Z</time></trkpt><trkpt lat="52.001996" lon="-1.860447"><ele>239.51</ele><time>2011-01-26T10:02:33Z</time></trkpt><trkpt lat="52.001888" lon="-1.860400"><ele>239.51</ele><time>2011-01-26T10:02:41Z</time></trkpt><trkpt lat="52.001698" lon="-1.860344"><ele>241.43</ele><time>2011-01-26T10:02:57Z</time></trkpt><trkpt lat="52.001648" lon="-1.860323"><ele>242.39</ele><time>2011-01-26T10:03:02Z</time></trkpt><trkpt lat="52.001494" lon="-1.860161"><ele>244.31</ele><time>2011-01-26T10:03:20Z</time></trkpt><trkpt lat="52.001481" lon="-1.860142"><ele>243.83</ele><time>2011-01-26T10:03:22Z</time></trkpt><trkpt lat="52.001454" lon="-1.859887"><ele>246.72</ele><time>2011-01-26T10:03:39Z</time></trkpt><trkpt lat="52.001436" lon="-1.859629"><ele>252.48</ele><time>2011-01-26T10:03:56Z</time></trkpt><trkpt lat="52.001428" lon="-1.859405"><ele>255.85</ele><time>2011-01-26T10:04:13Z</time></trkpt><trkpt lat="52.001428" lon="-1.859391"><ele>256.33</ele><time>2011-01-26T10:04:14Z</time></trkpt><trkpt lat="52.001518" lon="-1.859165"><ele>260.17</ele><time>2011-01-26T10:04:31Z</time></trkpt><trkpt lat="52.001613" lon="-1.859003"><ele>263.54</ele><time>2011-01-26T10:04:47Z</time></trkpt><trkpt lat="52.001748" lon="-1.858801"><ele>270.27</ele><time>2011-01-26T10:05:04Z</time></trkpt><trkpt lat="52.001846" lon="-1.858653"><ele>271.71</ele><time>2011-01-26T10:05:18Z</time></trkpt><trkpt lat="52.001871" lon="-1.858600"><ele>273.63</ele><time>2011-01-26T10:05:23Z</time></trkpt><trkpt lat="52.001957" lon="-1.858461"><ele>277.00</ele><time>2011-01-26T10:05:36Z</time></trkpt><trkpt lat="52.001968" lon="-1.858367"><ele>274.11</ele><time>2011-01-26T10:05:49Z</time></trkpt><trkpt lat="52.001999" lon="-1.858331"><ele>275.07</ele><time>2011-01-26T10:06:17Z</time></trkpt><trkpt lat="52.001986" lon="-1.858332"><ele>272.67</ele><time>2011-01-26T10:06:39Z</time></trkpt><trkpt lat="52.002047" lon="-1.858213"><ele>274.59</ele><time>2011-01-26T10:07:02Z</time></trkpt><trkpt lat="52.002148" lon="-1.858016"><ele>272.67</ele><time>2011-01-26T10:07:20Z</time></trkpt><trkpt lat="52.002259" lon="-1.857810"><ele>275.07</ele><time>2011-01-26T10:07:38Z</time></trkpt><trkpt lat="52.002282" lon="-1.857766"><ele>275.56</ele><time>2011-01-26T10:07:43Z</time></trkpt><trkpt lat="52.002296" lon="-1.857780"><ele>274.59</ele><time>2011-01-26T10:07:49Z</time></trkpt><trkpt lat="52.002396" lon="-1.857497"><ele>276.52</ele><time>2011-01-26T10:08:08Z</time></trkpt><trkpt lat="52.002414" lon="-1.857435"><ele>276.52</ele><time>2011-01-26T10:08:13Z</time></trkpt><trkpt lat="52.002535" lon="-1.857195"><ele>277.48</ele><time>2011-01-26T10:08:33Z</time></trkpt><trkpt lat="52.002603" lon="-1.856998"><ele>277.96</ele><time>2011-01-26T10:08:49Z</time></trkpt><trkpt lat="52.002688" lon="-1.856785"><ele>278.92</ele><time>2011-01-26T10:09:05Z</time></trkpt><trkpt lat="52.002770" lon="-1.856571"><ele>277.48</ele><time>2011-01-26T10:09:22Z</time></trkpt><trkpt lat="52.002832" lon="-1.856356"><ele>278.44</ele><time>2011-01-26T10:09:38Z</time></trkpt><trkpt lat="52.002875" lon="-1.856110"><ele>278.44</ele><time>2011-01-26T10:09:56Z</time></trkpt><trkpt lat="52.002913" lon="-1.855869"><ele>279.40</ele><time>2011-01-26T10:10:14Z</time></trkpt><trkpt lat="52.002945" lon="-1.855598"><ele>280.36</ele><time>2011-01-26T10:10:33Z</time></trkpt><trkpt lat="52.002988" lon="-1.855329"><ele>281.32</ele><time>2011-01-26T10:10:50Z</time></trkpt><trkpt lat="52.003012" lon="-1.855136"><ele>282.28</ele><time>2011-01-26T10:11:02Z</time></trkpt><trkpt lat="52.003041" lon="-1.854910"><ele>282.77</ele><time>2011-01-26T10:11:17Z</time></trkpt><trkpt lat="52.003068" lon="-1.854674"><ele>284.21</ele><time>2011-01-26T10:11:33Z</time></trkpt><trkpt lat="52.003101" lon="-1.854433"><ele>284.69</ele><time>2011-01-26T10:11:49Z</time></trkpt><trkpt lat="52.003147" lon="-1.854172"><ele>285.65</ele><time>2011-01-26T10:12:05Z</time></trkpt><trkpt lat="52.003177" lon="-1.853902"><ele>286.61</ele><time>2011-01-26T10:12:22Z</time></trkpt><trkpt lat="52.003175" lon="-1.853640"><ele>286.61</ele><time>2011-01-26T10:12:38Z</time></trkpt><trkpt lat="52.003150" lon="-1.853314"><ele>285.65</ele><time>2011-01-26T10:12:58Z</time></trkpt><trkpt lat="52.003126" lon="-1.853052"><ele>285.65</ele><time>2011-01-26T10:13:14Z</time></trkpt><trkpt lat="52.003100" lon="-1.852742"><ele>285.65</ele><time>2011-01-26T10:13:33Z</time></trkpt><trkpt lat="52.003077" lon="-1.852443"><ele>284.21</ele><time>2011-01-26T10:13:51Z</time></trkpt><trkpt lat="52.003057" lon="-1.852052"><ele>283.73</ele><time>2011-01-26T10:14:13Z</time></trkpt><trkpt lat="52.003069" lon="-1.851600"><ele>280.36</ele><time>2011-01-26T10:14:39Z</time></trkpt><trkpt lat="52.003090" lon="-1.851179"><ele>278.44</ele><time>2011-01-26T10:15:03Z</time></trkpt><trkpt lat="52.003212" lon="-1.850813"><ele>278.92</ele><time>2011-01-26T10:15:28Z</time></trkpt><trkpt lat="52.003201" lon="-1.850826"><ele>280.36</ele><time>2011-01-26T10:15:49Z</time></trkpt><trkpt lat="52.003041" lon="-1.850958"><ele>279.40</ele><time>2011-01-26T10:16:09Z</time></trkpt><trkpt lat="52.003028" lon="-1.851021"><ele>278.92</ele><time>2011-01-26T10:16:50Z</time></trkpt><trkpt lat="52.002949" lon="-1.851312"><ele>278.92</ele><time>2011-01-26T10:17:07Z</time></trkpt><trkpt lat="52.002823" lon="-1.851604"><ele>278.44</ele><time>2011-01-26T10:17:27Z</time></trkpt><trkpt lat="52.002621" lon="-1.852026"><ele>278.92</ele><time>2011-01-26T10:17:54Z</time></trkpt><trkpt lat="52.002442" lon="-1.852376"><ele>277.96</ele><time>2011-01-26T10:18:19Z</time></trkpt><trkpt lat="52.002281" lon="-1.852745"><ele>277.48</ele><time>2011-01-26T10:18:44Z</time></trkpt><trkpt lat="52.002116" lon="-1.853196"><ele>278.44</ele><time>2011-01-26T10:19:10Z</time></trkpt><trkpt lat="52.002090" lon="-1.853275"><ele>278.44</ele><time>2011-01-26T10:19:15Z</time></trkpt><trkpt lat="52.002073" lon="-1.853334"><ele>278.44</ele><time>2011-01-26T10:19:19Z</time></trkpt><trkpt lat="52.001862" lon="-1.853702"><ele>277.48</ele><time>2011-01-26T10:19:46Z</time></trkpt><trkpt lat="52.001630" lon="-1.854022"><ele>276.52</ele><time>2011-01-26T10:20:14Z</time></trkpt><trkpt lat="52.001353" lon="-1.854390"><ele>274.59</ele><time>2011-01-26T10:20:45Z</time></trkpt><trkpt lat="52.001056" lon="-1.854731"><ele>272.67</ele><time>2011-01-26T10:21:18Z</time></trkpt><trkpt lat="52.000988" lon="-1.854865"><ele>273.15</ele><time>2011-01-26T10:21:35Z</time></trkpt><trkpt lat="52.000909" lon="-1.854928"><ele>272.19</ele><time>2011-01-26T10:21:53Z</time></trkpt><trkpt lat="52.000697" lon="-1.855119"><ele>271.23</ele><time>2011-01-26T10:22:14Z</time></trkpt><trkpt lat="52.000409" lon="-1.855462"><ele>270.75</ele><time>2011-01-26T10:22:44Z</time></trkpt><trkpt lat="52.000376" lon="-1.855496"><ele>270.75</ele><time>2011-01-26T10:22:48Z</time></trkpt><trkpt lat="52.000335" lon="-1.855468"><ele>270.27</ele><time>2011-01-26T10:22:54Z</time></trkpt><trkpt lat="52.000262" lon="-1.855345"><ele>269.79</ele><time>2011-01-26T10:23:11Z</time></trkpt><trkpt lat="52.000119" lon="-1.855072"><ele>266.90</ele><time>2011-01-26T10:23:30Z</time></trkpt><trkpt lat="51.999879" lon="-1.854657"><ele>265.46</ele><time>2011-01-26T10:24:00Z</time></trkpt><trkpt lat="51.999703" lon="-1.854375"><ele>266.90</ele><time>2011-01-26T10:24:22Z</time></trkpt><trkpt lat="51.999518" lon="-1.854063"><ele>268.35</ele><time>2011-01-26T10:24:48Z</time></trkpt><trkpt lat="51.999399" lon="-1.853869"><ele>270.27</ele><time>2011-01-26T10:25:06Z</time></trkpt><trkpt lat="51.999285" lon="-1.853648"><ele>269.31</ele><time>2011-01-26T10:25:28Z</time></trkpt><trkpt lat="51.999151" lon="-1.853339"><ele>271.23</ele><time>2011-01-26T10:25:52Z</time></trkpt><trkpt lat="51.999032" lon="-1.853054"><ele>273.63</ele><time>2011-01-26T10:26:13Z</time></trkpt><trkpt lat="51.998887" lon="-1.852700"><ele>275.07</ele><time>2011-01-26T10:26:39Z</time></trkpt><trkpt lat="51.998765" lon="-1.852458"><ele>276.04</ele><time>2011-01-26T10:27:02Z</time></trkpt><trkpt lat="51.998699" lon="-1.852340"><ele>277.00</ele><time>2011-01-26T10:27:21Z</time></trkpt><trkpt lat="51.998689" lon="-1.852321"><ele>276.52</ele><time>2011-01-26T10:27:23Z</time></trkpt><trkpt lat="51.998690" lon="-1.852281"><ele>277.00</ele><time>2011-01-26T10:27:37Z</time></trkpt><trkpt lat="51.998687" lon="-1.852281"><ele>277.00</ele><time>2011-01-26T10:27:40Z</time></trkpt><trkpt lat="51.998571" lon="-1.851987"><ele>276.52</ele><time>2011-01-26T10:28:01Z</time></trkpt><trkpt lat="51.998455" lon="-1.851763"><ele>276.52</ele><time>2011-01-26T10:28:17Z</time></trkpt><trkpt lat="51.998229" lon="-1.851285"><ele>277.96</ele><time>2011-01-26T10:28:48Z</time></trkpt><trkpt lat="51.998022" lon="-1.850927"><ele>278.92</ele><time>2011-01-26T10:29:15Z</time></trkpt><trkpt lat="51.997808" lon="-1.850573"><ele>279.40</ele><time>2011-01-26T10:29:41Z</time></trkpt><trkpt lat="51.997656" lon="-1.850350"><ele>277.00</ele><time>2011-01-26T10:30:00Z</time></trkpt><trkpt lat="51.997500" lon="-1.850025"><ele>275.56</ele><time>2011-01-26T10:30:24Z</time></trkpt><trkpt lat="51.997375" lon="-1.849689"><ele>275.07</ele><time>2011-01-26T10:30:47Z</time></trkpt><trkpt lat="51.997249" lon="-1.849307"><ele>273.63</ele><time>2011-01-26T10:31:12Z</time></trkpt><trkpt lat="51.997141" lon="-1.848980"><ele>269.79</ele><time>2011-01-26T10:31:35Z</time></trkpt><trkpt lat="51.997043" lon="-1.848561"><ele>268.83</ele><time>2011-01-26T10:32:01Z</time></trkpt><trkpt lat="51.997011" lon="-1.848486"><ele>268.35</ele><time>2011-01-26T10:32:18Z</time></trkpt><trkpt lat="51.996950" lon="-1.848304"><ele>267.86</ele><time>2011-01-26T10:32:29Z</time></trkpt><trkpt lat="51.996814" lon="-1.847825"><ele>264.50</ele><time>2011-01-26T10:32:58Z</time></trkpt><trkpt lat="51.996736" lon="-1.847549"><ele>263.06</ele><time>2011-01-26T10:33:14Z</time></trkpt><trkpt lat="51.996716" lon="-1.847501"><ele>263.06</ele><time>2011-01-26T10:33:17Z</time></trkpt><trkpt lat="51.996627" lon="-1.847256"><ele>262.10</ele><time>2011-01-26T10:33:32Z</time></trkpt><trkpt lat="51.996559" lon="-1.846991"><ele>261.14</ele><time>2011-01-26T10:33:48Z</time></trkpt><trkpt lat="51.996471" lon="-1.846658"><ele>262.58</ele><time>2011-01-26T10:34:06Z</time></trkpt><trkpt lat="51.996412" lon="-1.846439"><ele>263.54</ele><time>2011-01-26T10:34:18Z</time></trkpt><trkpt lat="51.996302" lon="-1.846078"><ele>264.02</ele><time>2011-01-26T10:34:39Z</time></trkpt><trkpt lat="51.996140" lon="-1.845578"><ele>261.62</ele><time>2011-01-26T10:35:08Z</time></trkpt><trkpt lat="51.995980" lon="-1.845223"><ele>259.69</ele><time>2011-01-26T10:35:31Z</time></trkpt><trkpt lat="51.995873" lon="-1.845014"><ele>259.69</ele><time>2011-01-26T10:35:46Z</time></trkpt><trkpt lat="51.995766" lon="-1.844811"><ele>258.73</ele><time>2011-01-26T10:36:02Z</time></trkpt><trkpt lat="51.995644" lon="-1.844579"><ele>260.17</ele><time>2011-01-26T10:36:18Z</time></trkpt><trkpt lat="51.995415" lon="-1.844265"><ele>259.21</ele><time>2011-01-26T10:36:43Z</time></trkpt><trkpt lat="51.995221" lon="-1.844066"><ele>259.21</ele><time>2011-01-26T10:37:04Z</time></trkpt><trkpt lat="51.995176" lon="-1.843976"><ele>258.73</ele><time>2011-01-26T10:37:22Z</time></trkpt><trkpt lat="51.995237" lon="-1.843899"><ele>257.77</ele><time>2011-01-26T10:37:37Z</time></trkpt><trkpt lat="51.995278" lon="-1.843872"><ele>257.77</ele><time>2011-01-26T10:37:41Z</time></trkpt><trkpt lat="51.995463" lon="-1.843770"><ele>255.85</ele><time>2011-01-26T10:38:02Z</time></trkpt><trkpt lat="51.995642" lon="-1.843680"><ele>257.29</ele><time>2011-01-26T10:38:22Z</time></trkpt><trkpt lat="51.995869" lon="-1.843490"><ele>258.73</ele><time>2011-01-26T10:38:45Z</time></trkpt><trkpt lat="51.995861" lon="-1.843065"><ele>258.73</ele><time>2011-01-26T10:39:07Z</time></trkpt><trkpt lat="51.995851" lon="-1.842865"><ele>258.73</ele><time>2011-01-26T10:39:26Z</time></trkpt><trkpt lat="51.995830" lon="-1.842322"><ele>256.33</ele><time>2011-01-26T10:39:54Z</time></trkpt><trkpt lat="51.995804" lon="-1.841718"><ele>255.85</ele><time>2011-01-26T10:40:25Z</time></trkpt><trkpt lat="51.995777" lon="-1.841486"><ele>255.85</ele><time>2011-01-26T10:40:41Z</time></trkpt><trkpt lat="51.995748" lon="-1.841294"><ele>256.33</ele><time>2011-01-26T10:40:56Z</time></trkpt><trkpt lat="51.995746" lon="-1.840993"><ele>257.77</ele><time>2011-01-26T10:41:16Z</time></trkpt><trkpt lat="51.995734" lon="-1.840618"><ele>257.77</ele><time>2011-01-26T10:41:37Z</time></trkpt><trkpt lat="51.995733" lon="-1.840383"><ele>257.29</ele><time>2011-01-26T10:41:54Z</time></trkpt><trkpt lat="51.995726" lon="-1.840347"><ele>257.29</ele><time>2011-01-26T10:41:56Z</time></trkpt><trkpt lat="51.995723" lon="-1.840252"><ele>257.29</ele><time>2011-01-26T10:42:02Z</time></trkpt><trkpt lat="51.995755" lon="-1.840200"><ele>257.77</ele><time>2011-01-26T10:42:07Z</time></trkpt><trkpt lat="51.995743" lon="-1.839725"><ele>256.33</ele><time>2011-01-26T10:42:33Z</time></trkpt><trkpt lat="51.995720" lon="-1.839343"><ele>254.89</ele><time>2011-01-26T10:42:55Z</time></trkpt><trkpt lat="51.995712" lon="-1.838937"><ele>253.93</ele><time>2011-01-26T10:43:17Z</time></trkpt><trkpt lat="51.995699" lon="-1.838853"><ele>253.93</ele><time>2011-01-26T10:43:22Z</time></trkpt><trkpt lat="51.995691" lon="-1.838821"><ele>254.41</ele><time>2011-01-26T10:43:24Z</time></trkpt><trkpt lat="51.995646" lon="-1.838668"><ele>254.41</ele><time>2011-01-26T10:43:41Z</time></trkpt><trkpt lat="51.995622" lon="-1.838583"><ele>255.85</ele><time>2011-01-26T10:43:51Z</time></trkpt><trkpt lat="51.995681" lon="-1.838240"><ele>260.17</ele><time>2011-01-26T10:44:10Z</time></trkpt><trkpt lat="51.995655" lon="-1.837856"><ele>261.14</ele><time>2011-01-26T10:44:32Z</time></trkpt><trkpt lat="51.995643" lon="-1.837481"><ele>264.02</ele><time>2011-01-26T10:44:55Z</time></trkpt><trkpt lat="51.995626" lon="-1.837200"><ele>265.94</ele><time>2011-01-26T10:45:13Z</time></trkpt><trkpt lat="51.995618" lon="-1.836945"><ele>266.90</ele><time>2011-01-26T10:45:29Z</time></trkpt><trkpt lat="51.995601" lon="-1.836655"><ele>267.38</ele><time>2011-01-26T10:45:46Z</time></trkpt><trkpt lat="51.995586" lon="-1.836345"><ele>267.86</ele><time>2011-01-26T10:46:04Z</time></trkpt><trkpt lat="51.995581" lon="-1.836045"><ele>267.86</ele><time>2011-01-26T10:46:23Z</time></trkpt><trkpt lat="51.995573" lon="-1.835742"><ele>266.42</ele><time>2011-01-26T10:46:42Z</time></trkpt><trkpt lat="51.995568" lon="-1.835557"><ele>266.90</ele><time>2011-01-26T10:46:57Z</time></trkpt><trkpt lat="51.995584" lon="-1.835480"><ele>265.46</ele><time>2011-01-26T10:47:11Z</time></trkpt><trkpt lat="51.995549" lon="-1.835412"><ele>264.02</ele><time>2011-01-26T10:47:24Z</time></trkpt><trkpt lat="51.995553" lon="-1.835168"><ele>263.06</ele><time>2011-01-26T10:47:40Z</time></trkpt><trkpt lat="51.995530" lon="-1.834859"><ele>265.46</ele><time>2011-01-26T10:47:58Z</time></trkpt><trkpt lat="51.995476" lon="-1.834552"><ele>268.35</ele><time>2011-01-26T10:48:18Z</time></trkpt><trkpt lat="51.995425" lon="-1.834390"><ele>266.90</ele><time>2011-01-26T10:48:44Z</time></trkpt><trkpt lat="51.995311" lon="-1.834129"><ele>266.90</ele><time>2011-01-26T10:49:03Z</time></trkpt><trkpt lat="51.995255" lon="-1.833872"><ele>267.38</ele><time>2011-01-26T10:49:20Z</time></trkpt><trkpt lat="51.995158" lon="-1.833624"><ele>267.38</ele><time>2011-01-26T10:49:38Z</time></trkpt><trkpt lat="51.995114" lon="-1.833368"><ele>266.90</ele><time>2011-01-26T10:49:54Z</time></trkpt><trkpt lat="51.995053" lon="-1.833133"><ele>266.90</ele><time>2011-01-26T10:50:11Z</time></trkpt><trkpt lat="51.995001" lon="-1.832970"><ele>266.90</ele><time>2011-01-26T10:50:22Z</time></trkpt><trkpt lat="51.994931" lon="-1.832656"><ele>264.50</ele><time>2011-01-26T10:50:41Z</time></trkpt><trkpt lat="51.994876" lon="-1.832374"><ele>266.42</ele><time>2011-01-26T10:50:59Z</time></trkpt><trkpt lat="51.994830" lon="-1.832096"><ele>266.42</ele><time>2011-01-26T10:51:15Z</time></trkpt><trkpt lat="51.994804" lon="-1.832036"><ele>266.42</ele><time>2011-01-26T10:51:20Z</time></trkpt><trkpt lat="51.994761" lon="-1.831783"><ele>265.94</ele><time>2011-01-26T10:51:36Z</time></trkpt><trkpt lat="51.994733" lon="-1.831522"><ele>265.94</ele><time>2011-01-26T10:51:52Z</time></trkpt><trkpt lat="51.994732" lon="-1.831222"><ele>264.98</ele><time>2011-01-26T10:52:10Z</time></trkpt><trkpt lat="51.994732" lon="-1.830899"><ele>264.02</ele><time>2011-01-26T10:52:28Z</time></trkpt><trkpt lat="51.994729" lon="-1.830533"><ele>263.54</ele><time>2011-01-26T10:52:50Z</time></trkpt><trkpt lat="51.994722" lon="-1.830368"><ele>264.02</ele><time>2011-01-26T10:53:11Z</time></trkpt><trkpt lat="51.994723" lon="-1.830382"><ele>264.50</ele><time>2011-01-26T10:53:41Z</time></trkpt><trkpt lat="51.994687" lon="-1.830387"><ele>264.50</ele><time>2011-01-26T10:54:09Z</time></trkpt><trkpt lat="51.994683" lon="-1.830369"><ele>265.46</ele><time>2011-01-26T10:54:28Z</time></trkpt><trkpt lat="51.994705" lon="-1.830053"><ele>260.65</ele><time>2011-01-26T10:54:43Z</time></trkpt><trkpt lat="51.994708" lon="-1.830036"><ele>260.65</ele><time>2011-01-26T10:54:44Z</time></trkpt><trkpt lat="51.994730" lon="-1.829754"><ele>258.73</ele><time>2011-01-26T10:54:59Z</time></trkpt><trkpt lat="51.994753" lon="-1.829587"><ele>260.65</ele><time>2011-01-26T10:55:12Z</time></trkpt><trkpt lat="51.994791" lon="-1.829422"><ele>261.62</ele><time>2011-01-26T10:55:25Z</time></trkpt><trkpt lat="51.994799" lon="-1.829298"><ele>263.54</ele><time>2011-01-26T10:55:38Z</time></trkpt><trkpt lat="51.994886" lon="-1.829127"><ele>264.50</ele><time>2011-01-26T10:55:56Z</time></trkpt><trkpt lat="51.994956" lon="-1.828936"><ele>267.86</ele><time>2011-01-26T10:56:10Z</time></trkpt><trkpt lat="51.994928" lon="-1.828911"><ele>269.31</ele><time>2011-01-26T10:56:24Z</time></trkpt><trkpt lat="51.994906" lon="-1.828876"><ele>267.86</ele><time>2011-01-26T10:56:52Z</time></trkpt><trkpt lat="51.994881" lon="-1.828769"><ele>267.86</ele><time>2011-01-26T10:57:05Z</time></trkpt><trkpt lat="51.994882" lon="-1.828779"><ele>266.42</ele><time>2011-01-26T10:57:22Z</time></trkpt><trkpt lat="51.994892" lon="-1.828792"><ele>264.50</ele><time>2011-01-26T10:57:40Z</time></trkpt><trkpt lat="51.994847" lon="-1.828825"><ele>265.46</ele><time>2011-01-26T10:57:53Z</time></trkpt><trkpt lat="51.994865" lon="-1.828817"><ele>264.50</ele><time>2011-01-26T10:58:20Z</time></trkpt><trkpt lat="51.994870" lon="-1.828821"><ele>264.02</ele><time>2011-01-26T10:58:43Z</time></trkpt><trkpt lat="51.994883" lon="-1.828835"><ele>263.54</ele><time>2011-01-26T10:59:19Z</time></trkpt><trkpt lat="51.994882" lon="-1.828838"><ele>263.06</ele><time>2011-01-26T10:59:50Z</time></trkpt><trkpt lat="51.994877" lon="-1.828833"><ele>262.58</ele><time>2011-01-26T11:00:45Z</time></trkpt><trkpt lat="51.994881" lon="-1.828840"><ele>262.10</ele><time>2011-01-26T11:01:25Z</time></trkpt><trkpt lat="51.994880" lon="-1.828844"><ele>262.58</ele><time>2011-01-26T11:02:41Z</time></trkpt><trkpt lat="51.994887" lon="-1.828840"><ele>261.62</ele><time>2011-01-26T11:03:49Z</time></trkpt><trkpt lat="51.994888" lon="-1.828838"><ele>262.10</ele><time>2011-01-26T11:04:31Z</time></trkpt><trkpt lat="51.994886" lon="-1.828835"><ele>262.10</ele><time>2011-01-26T11:04:58Z</time></trkpt><trkpt lat="51.994887" lon="-1.828835"><ele>262.10</ele><time>2011-01-26T11:05:44Z</time></trkpt><trkpt lat="51.994893" lon="-1.828828"><ele>262.10</ele><time>2011-01-26T11:06:08Z</time></trkpt><trkpt lat="51.994888" lon="-1.828821"><ele>262.10</ele><time>2011-01-26T11:07:19Z</time></trkpt><trkpt lat="51.994888" lon="-1.828804"><ele>261.62</ele><time>2011-01-26T11:07:41Z</time></trkpt><trkpt lat="51.994887" lon="-1.828787"><ele>262.58</ele><time>2011-01-26T11:08:12Z</time></trkpt><trkpt lat="51.994890" lon="-1.828794"><ele>261.62</ele><time>2011-01-26T11:08:38Z</time></trkpt><trkpt lat="51.994927" lon="-1.828824"><ele>261.14</ele><time>2011-01-26T11:09:11Z</time></trkpt><trkpt lat="51.994967" lon="-1.828873"><ele>263.06</ele><time>2011-01-26T11:10:59Z</time></trkpt><trkpt lat="51.994966" lon="-1.828872"><ele>263.06</ele><time>2011-01-26T11:11:06Z</time></trkpt><trkpt lat="51.994879" lon="-1.828755"><ele>264.02</ele><time>2011-01-26T11:11:13Z</time></trkpt><trkpt lat="51.994742" lon="-1.828450"><ele>266.42</ele><time>2011-01-26T11:11:30Z</time></trkpt><trkpt lat="51.994720" lon="-1.828420"><ele>266.90</ele><time>2011-01-26T11:11:33Z</time></trkpt><trkpt lat="51.994605" lon="-1.828268"><ele>265.94</ele><time>2011-01-26T11:11:48Z</time></trkpt><trkpt lat="51.994537" lon="-1.828065"><ele>265.46</ele><time>2011-01-26T11:12:04Z</time></trkpt><trkpt lat="51.994534" lon="-1.828035"><ele>265.46</ele><time>2011-01-26T11:12:07Z</time></trkpt><trkpt lat="51.994529" lon="-1.827902"><ele>266.90</ele><time>2011-01-26T11:12:23Z</time></trkpt><trkpt lat="51.994521" lon="-1.827969"><ele>267.86</ele><time>2011-01-26T11:13:05Z</time></trkpt><trkpt lat="51.994533" lon="-1.827928"><ele>268.83</ele><time>2011-01-26T11:13:52Z</time></trkpt><trkpt lat="51.994522" lon="-1.827808"><ele>268.83</ele><time>2011-01-26T11:14:11Z</time></trkpt><trkpt lat="51.994508" lon="-1.827520"><ele>268.83</ele><time>2011-01-26T11:14:28Z</time></trkpt><trkpt lat="51.994512" lon="-1.827460"><ele>268.35</ele><time>2011-01-26T11:14:32Z</time></trkpt><trkpt lat="51.994483" lon="-1.827354"><ele>269.31</ele><time>2011-01-26T11:14:38Z</time></trkpt><trkpt lat="51.994518" lon="-1.826936"><ele>270.75</ele><time>2011-01-26T11:15:00Z</time></trkpt><trkpt lat="51.994521" lon="-1.826823"><ele>270.75</ele><time>2011-01-26T11:15:06Z</time></trkpt><trkpt lat="51.994541" lon="-1.826706"><ele>270.75</ele><time>2011-01-26T11:15:13Z</time></trkpt><trkpt lat="51.994524" lon="-1.826364"><ele>270.75</ele><time>2011-01-26T11:15:31Z</time></trkpt><trkpt lat="51.994531" lon="-1.825939"><ele>270.27</ele><time>2011-01-26T11:15:52Z</time></trkpt><trkpt lat="51.994537" lon="-1.825751"><ele>269.31</ele><time>2011-01-26T11:16:09Z</time></trkpt><trkpt lat="51.994566" lon="-1.825523"><ele>269.31</ele><time>2011-01-26T11:16:31Z</time></trkpt><trkpt lat="51.994573" lon="-1.825352"><ele>269.31</ele><time>2011-01-26T11:16:44Z</time></trkpt><trkpt lat="51.994571" lon="-1.825218"><ele>270.27</ele><time>2011-01-26T11:16:59Z</time></trkpt><trkpt lat="51.994587" lon="-1.825069"><ele>270.75</ele><time>2011-01-26T11:17:09Z</time></trkpt><trkpt lat="51.994606" lon="-1.825055"><ele>270.27</ele><time>2011-01-26T11:17:13Z</time></trkpt><trkpt lat="51.994632" lon="-1.824976"><ele>270.75</ele><time>2011-01-26T11:17:19Z</time></trkpt><trkpt lat="51.994721" lon="-1.824699"><ele>271.23</ele><time>2011-01-26T11:17:36Z</time></trkpt><trkpt lat="51.994815" lon="-1.824467"><ele>274.59</ele><time>2011-01-26T11:17:51Z</time></trkpt><trkpt lat="51.994824" lon="-1.824451"><ele>274.59</ele><time>2011-01-26T11:18:04Z</time></trkpt><trkpt lat="51.994815" lon="-1.824325"><ele>274.11</ele><time>2011-01-26T11:18:10Z</time></trkpt><trkpt lat="51.994811" lon="-1.824101"><ele>275.07</ele><time>2011-01-26T11:18:25Z</time></trkpt><trkpt lat="51.994809" lon="-1.824061"><ele>276.04</ele><time>2011-01-26T11:18:28Z</time></trkpt><trkpt lat="51.994773" lon="-1.823909"><ele>275.07</ele><time>2011-01-26T11:18:36Z</time></trkpt><trkpt lat="51.994722" lon="-1.823659"><ele>272.67</ele><time>2011-01-26T11:18:53Z</time></trkpt><trkpt lat="51.994672" lon="-1.823318"><ele>271.23</ele><time>2011-01-26T11:19:11Z</time></trkpt><trkpt lat="51.994547" lon="-1.823126"><ele>271.71</ele><time>2011-01-26T11:19:28Z</time></trkpt><trkpt lat="51.994531" lon="-1.823113"><ele>271.71</ele><time>2011-01-26T11:19:30Z</time></trkpt><trkpt lat="51.994513" lon="-1.823102"><ele>271.71</ele><time>2011-01-26T11:19:32Z</time></trkpt><trkpt lat="51.994357" lon="-1.823019"><ele>271.23</ele><time>2011-01-26T11:19:47Z</time></trkpt><trkpt lat="51.994350" lon="-1.823010"><ele>270.75</ele><time>2011-01-26T11:19:48Z</time></trkpt><trkpt lat="51.994302" lon="-1.822976"><ele>268.83</ele><time>2011-01-26T11:19:53Z</time></trkpt><trkpt lat="51.994101" lon="-1.823015"><ele>263.54</ele><time>2011-01-26T11:20:11Z</time></trkpt><trkpt lat="51.993895" lon="-1.823136"><ele>260.65</ele><time>2011-01-26T11:20:31Z</time></trkpt><trkpt lat="51.993845" lon="-1.823168"><ele>261.14</ele><time>2011-01-26T11:20:47Z</time></trkpt><trkpt lat="51.993716" lon="-1.823271"><ele>260.17</ele><time>2011-01-26T11:21:04Z</time></trkpt><trkpt lat="51.993552" lon="-1.823397"><ele>257.77</ele><time>2011-01-26T11:21:22Z</time></trkpt><trkpt lat="51.993402" lon="-1.823529"><ele>255.37</ele><time>2011-01-26T11:21:38Z</time></trkpt><trkpt lat="51.993241" lon="-1.823633"><ele>252.00</ele><time>2011-01-26T11:21:54Z</time></trkpt><trkpt lat="51.993070" lon="-1.823747"><ele>250.56</ele><time>2011-01-26T11:22:10Z</time></trkpt><trkpt lat="51.992939" lon="-1.823887"><ele>249.12</ele><time>2011-01-26T11:22:24Z</time></trkpt><trkpt lat="51.992719" lon="-1.824016"><ele>248.16</ele><time>2011-01-26T11:22:43Z</time></trkpt><trkpt lat="51.992594" lon="-1.824125"><ele>248.16</ele><time>2011-01-26T11:22:57Z</time></trkpt><trkpt lat="51.992430" lon="-1.824219"><ele>248.16</ele><time>2011-01-26T11:23:12Z</time></trkpt><trkpt lat="51.992183" lon="-1.824385"><ele>244.79</ele><time>2011-01-26T11:23:35Z</time></trkpt><trkpt lat="51.992006" lon="-1.824487"><ele>242.39</ele><time>2011-01-26T11:23:51Z</time></trkpt><trkpt lat="51.991951" lon="-1.824540"><ele>240.95</ele><time>2011-01-26T11:24:05Z</time></trkpt><trkpt lat="51.991822" lon="-1.824567"><ele>242.39</ele><time>2011-01-26T11:24:20Z</time></trkpt><trkpt lat="51.991806" lon="-1.824643"><ele>241.43</ele><time>2011-01-26T11:24:28Z</time></trkpt><trkpt lat="51.991632" lon="-1.824706"><ele>239.51</ele><time>2011-01-26T11:24:48Z</time></trkpt><trkpt lat="51.991613" lon="-1.824714"><ele>239.51</ele><time>2011-01-26T11:24:53Z</time></trkpt><trkpt lat="51.991477" lon="-1.824786"><ele>238.06</ele><time>2011-01-26T11:25:08Z</time></trkpt><trkpt lat="51.991310" lon="-1.824897"><ele>235.18</ele><time>2011-01-26T11:25:25Z</time></trkpt><trkpt lat="51.991131" lon="-1.825005"><ele>233.74</ele><time>2011-01-26T11:25:43Z</time></trkpt><trkpt lat="51.991058" lon="-1.825072"><ele>233.74</ele><time>2011-01-26T11:25:55Z</time></trkpt><trkpt lat="51.990980" lon="-1.825175"><ele>236.14</ele><time>2011-01-26T11:26:12Z</time></trkpt><trkpt lat="51.990948" lon="-1.825172"><ele>235.66</ele><time>2011-01-26T11:26:15Z</time></trkpt><trkpt lat="51.990785" lon="-1.825133"><ele>232.30</ele><time>2011-01-26T11:26:33Z</time></trkpt><trkpt lat="51.990757" lon="-1.825146"><ele>228.93</ele><time>2011-01-26T11:26:50Z</time></trkpt><trkpt lat="51.990762" lon="-1.825198"><ele>233.74</ele><time>2011-01-26T11:27:07Z</time></trkpt><trkpt lat="51.990707" lon="-1.825452"><ele>241.91</ele><time>2011-01-26T11:27:57Z</time></trkpt><trkpt lat="51.990533" lon="-1.825052"><ele>235.66</ele><time>2011-01-26T11:28:13Z</time></trkpt><trkpt lat="51.990474" lon="-1.825016"><ele>231.81</ele><time>2011-01-26T11:28:19Z</time></trkpt><trkpt lat="51.990357" lon="-1.824900"><ele>227.01</ele><time>2011-01-26T11:28:29Z</time></trkpt><trkpt lat="51.990290" lon="-1.824798"><ele>224.61</ele><time>2011-01-26T11:28:36Z</time></trkpt><trkpt lat="51.990102" lon="-1.824614"><ele>223.16</ele><time>2011-01-26T11:28:53Z</time></trkpt><trkpt lat="51.990028" lon="-1.824539"><ele>223.64</ele><time>2011-01-26T11:29:00Z</time></trkpt><trkpt lat="51.989940" lon="-1.824451"><ele>224.61</ele><time>2011-01-26T11:29:08Z</time></trkpt><trkpt lat="51.989748" lon="-1.824290"><ele>223.16</ele><time>2011-01-26T11:29:27Z</time></trkpt><trkpt lat="51.989545" lon="-1.824181"><ele>222.68</ele><time>2011-01-26T11:29:44Z</time></trkpt><trkpt lat="51.989430" lon="-1.824113"><ele>221.72</ele><time>2011-01-26T11:29:54Z</time></trkpt><trkpt lat="51.989234" lon="-1.823961"><ele>222.20</ele><time>2011-01-26T11:30:14Z</time></trkpt><trkpt lat="51.989156" lon="-1.823925"><ele>223.16</ele><time>2011-01-26T11:30:24Z</time></trkpt><trkpt lat="51.989094" lon="-1.824220"><ele>223.16</ele><time>2011-01-26T11:30:40Z</time></trkpt><trkpt lat="51.989066" lon="-1.824390"><ele>223.64</ele><time>2011-01-26T11:30:53Z</time></trkpt><trkpt lat="51.989071" lon="-1.824447"><ele>223.16</ele><time>2011-01-26T11:31:06Z</time></trkpt><trkpt lat="51.989116" lon="-1.824465"><ele>223.64</ele><time>2011-01-26T11:31:18Z</time></trkpt><trkpt lat="51.989188" lon="-1.824597"><ele>224.12</ele><time>2011-01-26T11:31:32Z</time></trkpt><trkpt lat="51.989222" lon="-1.824815"><ele>226.53</ele><time>2011-01-26T11:31:47Z</time></trkpt><trkpt lat="51.989189" lon="-1.825011"><ele>229.89</ele><time>2011-01-26T11:32:03Z</time></trkpt><trkpt lat="51.989176" lon="-1.825193"><ele>231.33</ele><time>2011-01-26T11:32:18Z</time></trkpt><trkpt lat="51.989130" lon="-1.825294"><ele>232.30</ele><time>2011-01-26T11:32:33Z</time></trkpt><trkpt lat="51.989102" lon="-1.825565"><ele>233.26</ele><time>2011-01-26T11:32:49Z</time></trkpt><trkpt lat="51.989064" lon="-1.825826"><ele>234.22</ele><time>2011-01-26T11:33:06Z</time></trkpt><trkpt lat="51.989017" lon="-1.826024"><ele>234.22</ele><time>2011-01-26T11:33:20Z</time></trkpt><trkpt lat="51.988969" lon="-1.826331"><ele>234.22</ele><time>2011-01-26T11:33:38Z</time></trkpt><trkpt lat="51.988925" lon="-1.826503"><ele>234.70</ele><time>2011-01-26T11:33:51Z</time></trkpt><trkpt lat="51.988886" lon="-1.826772"><ele>235.18</ele><time>2011-01-26T11:34:07Z</time></trkpt><trkpt lat="51.988859" lon="-1.827028"><ele>236.14</ele><time>2011-01-26T11:34:22Z</time></trkpt><trkpt lat="51.988826" lon="-1.827332"><ele>237.58</ele><time>2011-01-26T11:34:40Z</time></trkpt><trkpt lat="51.988784" lon="-1.827611"><ele>239.02</ele><time>2011-01-26T11:34:56Z</time></trkpt><trkpt lat="51.988726" lon="-1.827922"><ele>239.51</ele><time>2011-01-26T11:35:15Z</time></trkpt><trkpt lat="51.988689" lon="-1.828119"><ele>239.99</ele><time>2011-01-26T11:35:28Z</time></trkpt><trkpt lat="51.988589" lon="-1.828358"><ele>239.99</ele><time>2011-01-26T11:35:46Z</time></trkpt><trkpt lat="51.988511" lon="-1.828604"><ele>241.91</ele><time>2011-01-26T11:36:02Z</time></trkpt><trkpt lat="51.988487" lon="-1.828717"><ele>244.31</ele><time>2011-01-26T11:36:17Z</time></trkpt><trkpt lat="51.988466" lon="-1.828733"><ele>244.31</ele><time>2011-01-26T11:36:38Z</time></trkpt><trkpt lat="51.988371" lon="-1.829077"><ele>244.79</ele><time>2011-01-26T11:37:01Z</time></trkpt><trkpt lat="51.988322" lon="-1.829359"><ele>244.79</ele><time>2011-01-26T11:37:18Z</time></trkpt><trkpt lat="51.988295" lon="-1.829441"><ele>243.83</ele><time>2011-01-26T11:37:24Z</time></trkpt><trkpt lat="51.988274" lon="-1.829505"><ele>243.35</ele><time>2011-01-26T11:37:29Z</time></trkpt><trkpt lat="51.988238" lon="-1.829532"><ele>243.35</ele><time>2011-01-26T11:37:33Z</time></trkpt><trkpt lat="51.988183" lon="-1.829819"><ele>243.83</ele><time>2011-01-26T11:37:50Z</time></trkpt><trkpt lat="51.988114" lon="-1.830087"><ele>244.31</ele><time>2011-01-26T11:38:07Z</time></trkpt><trkpt lat="51.988077" lon="-1.830270"><ele>244.79</ele><time>2011-01-26T11:38:21Z</time></trkpt><trkpt lat="51.988055" lon="-1.830326"><ele>243.83</ele><time>2011-01-26T11:38:26Z</time></trkpt><trkpt lat="51.987991" lon="-1.830536"><ele>242.87</ele><time>2011-01-26T11:38:41Z</time></trkpt><trkpt lat="51.987988" lon="-1.830553"><ele>242.87</ele><time>2011-01-26T11:38:42Z</time></trkpt><trkpt lat="51.987961" lon="-1.830819"><ele>245.27</ele><time>2011-01-26T11:38:58Z</time></trkpt><trkpt lat="51.987910" lon="-1.830881"><ele>244.31</ele><time>2011-01-26T11:39:16Z</time></trkpt><trkpt lat="51.987924" lon="-1.831161"><ele>243.35</ele><time>2011-01-26T11:39:31Z</time></trkpt><trkpt lat="51.987897" lon="-1.831461"><ele>241.91</ele><time>2011-01-26T11:39:47Z</time></trkpt><trkpt lat="51.987870" lon="-1.831674"><ele>243.35</ele><time>2011-01-26T11:40:01Z</time></trkpt><trkpt lat="51.987847" lon="-1.831897"><ele>243.35</ele><time>2011-01-26T11:40:14Z</time></trkpt><trkpt lat="51.987822" lon="-1.832082"><ele>243.35</ele><time>2011-01-26T11:40:23Z</time></trkpt><trkpt lat="51.987807" lon="-1.832210"><ele>244.79</ele><time>2011-01-26T11:40:30Z</time></trkpt><trkpt lat="51.987815" lon="-1.832469"><ele>245.75</ele><time>2011-01-26T11:40:45Z</time></trkpt><trkpt lat="51.987810" lon="-1.832703"><ele>248.64</ele><time>2011-01-26T11:41:00Z</time></trkpt><trkpt lat="51.987812" lon="-1.832891"><ele>250.08</ele><time>2011-01-26T11:41:14Z</time></trkpt><trkpt lat="51.987836" lon="-1.833155"><ele>251.04</ele><time>2011-01-26T11:41:28Z</time></trkpt><trkpt lat="51.987812" lon="-1.833378"><ele>251.04</ele><time>2011-01-26T11:41:42Z</time></trkpt><trkpt lat="51.987801" lon="-1.833693"><ele>252.00</ele><time>2011-01-26T11:42:00Z</time></trkpt><trkpt lat="51.987803" lon="-1.833709"><ele>252.00</ele><time>2011-01-26T11:42:01Z</time></trkpt><trkpt lat="51.987826" lon="-1.833889"><ele>249.60</ele><time>2011-01-26T11:42:12Z</time></trkpt><trkpt lat="51.987813" lon="-1.833932"><ele>250.08</ele><time>2011-01-26T11:42:15Z</time></trkpt><trkpt lat="51.987793" lon="-1.834110"><ele>250.56</ele><time>2011-01-26T11:42:30Z</time></trkpt><trkpt lat="51.987805" lon="-1.834251"><ele>251.04</ele><time>2011-01-26T11:42:46Z</time></trkpt><trkpt lat="51.987835" lon="-1.834371"><ele>249.60</ele><time>2011-01-26T11:43:00Z</time></trkpt><trkpt lat="51.987827" lon="-1.834411"><ele>250.08</ele><time>2011-01-26T11:43:03Z</time></trkpt><trkpt lat="51.987820" lon="-1.834607"><ele>251.52</ele><time>2011-01-26T11:43:17Z</time></trkpt><trkpt lat="51.987818" lon="-1.834820"><ele>249.12</ele><time>2011-01-26T11:43:32Z</time></trkpt><trkpt lat="51.987828" lon="-1.835002"><ele>250.08</ele><time>2011-01-26T11:43:44Z</time></trkpt><trkpt lat="51.987822" lon="-1.835184"><ele>251.04</ele><time>2011-01-26T11:43:57Z</time></trkpt><trkpt lat="51.987815" lon="-1.835455"><ele>249.60</ele><time>2011-01-26T11:44:11Z</time></trkpt><trkpt lat="51.987811" lon="-1.835659"><ele>254.89</ele><time>2011-01-26T11:44:26Z</time></trkpt><trkpt lat="51.987799" lon="-1.835762"><ele>253.44</ele><time>2011-01-26T11:44:38Z</time></trkpt><trkpt lat="51.987810" lon="-1.836032"><ele>255.37</ele><time>2011-01-26T11:44:56Z</time></trkpt><trkpt lat="51.987828" lon="-1.836323"><ele>259.21</ele><time>2011-01-26T11:45:13Z</time></trkpt><trkpt lat="51.987876" lon="-1.836495"><ele>260.65</ele><time>2011-01-26T11:45:23Z</time></trkpt><trkpt lat="51.987875" lon="-1.836540"><ele>259.69</ele><time>2011-01-26T11:45:26Z</time></trkpt><trkpt lat="51.987863" lon="-1.836735"><ele>258.73</ele><time>2011-01-26T11:45:40Z</time></trkpt><trkpt lat="51.987864" lon="-1.836780"><ele>259.69</ele><time>2011-01-26T11:45:47Z</time></trkpt><trkpt lat="51.987846" lon="-1.836860"><ele>260.17</ele><time>2011-01-26T11:45:53Z</time></trkpt><trkpt lat="51.987835" lon="-1.836935"><ele>259.21</ele><time>2011-01-26T11:45:58Z</time></trkpt><trkpt lat="51.987816" lon="-1.837238"><ele>255.37</ele><time>2011-01-26T11:46:15Z</time></trkpt><trkpt lat="51.987804" lon="-1.837434"><ele>255.85</ele><time>2011-01-26T11:46:29Z</time></trkpt><trkpt lat="51.987803" lon="-1.837425"><ele>255.85</ele><time>2011-01-26T11:46:34Z</time></trkpt><trkpt lat="51.987791" lon="-1.837579"><ele>253.93</ele><time>2011-01-26T11:46:47Z</time></trkpt><trkpt lat="51.987781" lon="-1.837686"><ele>253.93</ele><time>2011-01-26T11:46:56Z</time></trkpt><trkpt lat="51.987829" lon="-1.837827"><ele>256.33</ele><time>2011-01-26T11:47:08Z</time></trkpt><trkpt lat="51.987826" lon="-1.837880"><ele>257.77</ele><time>2011-01-26T11:47:14Z</time></trkpt><trkpt lat="51.987822" lon="-1.838080"><ele>257.77</ele><time>2011-01-26T11:47:28Z</time></trkpt><trkpt lat="51.987828" lon="-1.838261"><ele>257.77</ele><time>2011-01-26T11:47:40Z</time></trkpt><trkpt lat="51.987821" lon="-1.838450"><ele>258.25</ele><time>2011-01-26T11:47:53Z</time></trkpt><trkpt lat="51.987824" lon="-1.838660"><ele>259.21</ele><time>2011-01-26T11:48:06Z</time></trkpt><trkpt lat="51.987829" lon="-1.838899"><ele>258.25</ele><time>2011-01-26T11:48:22Z</time></trkpt><trkpt lat="51.987816" lon="-1.839105"><ele>258.73</ele><time>2011-01-26T11:48:35Z</time></trkpt><trkpt lat="51.987811" lon="-1.839308"><ele>259.69</ele><time>2011-01-26T11:48:48Z</time></trkpt><trkpt lat="51.987803" lon="-1.839555"><ele>260.17</ele><time>2011-01-26T11:49:04Z</time></trkpt><trkpt lat="51.987796" lon="-1.839763"><ele>259.69</ele><time>2011-01-26T11:49:18Z</time></trkpt><trkpt lat="51.987786" lon="-1.839991"><ele>259.69</ele><time>2011-01-26T11:49:33Z</time></trkpt><trkpt lat="51.987771" lon="-1.840228"><ele>261.14</ele><time>2011-01-26T11:49:48Z</time></trkpt><trkpt lat="51.987759" lon="-1.840526"><ele>262.10</ele><time>2011-01-26T11:50:06Z</time></trkpt><trkpt lat="51.987759" lon="-1.840804"><ele>260.65</ele><time>2011-01-26T11:50:23Z</time></trkpt><trkpt lat="51.987766" lon="-1.841070"><ele>260.65</ele><time>2011-01-26T11:50:40Z</time></trkpt><trkpt lat="51.987764" lon="-1.841288"><ele>262.10</ele><time>2011-01-26T11:50:53Z</time></trkpt><trkpt lat="51.987762" lon="-1.841547"><ele>259.69</ele><time>2011-01-26T11:51:10Z</time></trkpt><trkpt lat="51.987780" lon="-1.841824"><ele>261.14</ele><time>2011-01-26T11:51:27Z</time></trkpt><trkpt lat="51.987794" lon="-1.842029"><ele>261.62</ele><time>2011-01-26T11:51:40Z</time></trkpt><trkpt lat="51.987822" lon="-1.842266"><ele>259.69</ele><time>2011-01-26T11:51:55Z</time></trkpt><trkpt lat="51.987824" lon="-1.842543"><ele>261.14</ele><time>2011-01-26T11:52:11Z</time></trkpt><trkpt lat="51.987856" lon="-1.842735"><ele>262.58</ele><time>2011-01-26T11:52:24Z</time></trkpt><trkpt lat="51.987881" lon="-1.842993"><ele>263.54</ele><time>2011-01-26T11:52:40Z</time></trkpt><trkpt lat="51.987883" lon="-1.843021"><ele>263.54</ele><time>2011-01-26T11:52:42Z</time></trkpt><trkpt lat="51.987905" lon="-1.843322"><ele>264.98</ele><time>2011-01-26T11:53:01Z</time></trkpt><trkpt lat="51.987929" lon="-1.843501"><ele>264.98</ele><time>2011-01-26T11:53:17Z</time></trkpt><trkpt lat="51.987940" lon="-1.843645"><ele>266.90</ele><time>2011-01-26T11:53:32Z</time></trkpt><trkpt lat="51.987971" lon="-1.843892"><ele>266.42</ele><time>2011-01-26T11:53:48Z</time></trkpt><trkpt lat="51.988008" lon="-1.844202"><ele>266.42</ele><time>2011-01-26T11:54:07Z</time></trkpt><trkpt lat="51.988043" lon="-1.844378"><ele>267.86</ele><time>2011-01-26T11:54:19Z</time></trkpt><trkpt lat="51.988066" lon="-1.844646"><ele>269.79</ele><time>2011-01-26T11:54:34Z</time></trkpt><trkpt lat="51.988098" lon="-1.844797"><ele>269.31</ele><time>2011-01-26T11:54:47Z</time></trkpt><trkpt lat="51.988135" lon="-1.845001"><ele>268.83</ele><time>2011-01-26T11:55:01Z</time></trkpt><trkpt lat="51.988180" lon="-1.845202"><ele>270.27</ele><time>2011-01-26T11:55:15Z</time></trkpt><trkpt lat="51.988221" lon="-1.845506"><ele>271.71</ele><time>2011-01-26T11:55:33Z</time></trkpt><trkpt lat="51.988241" lon="-1.845717"><ele>274.11</ele><time>2011-01-26T11:55:46Z</time></trkpt><trkpt lat="51.988283" lon="-1.845924"><ele>275.07</ele><time>2011-01-26T11:55:59Z</time></trkpt><trkpt lat="51.988303" lon="-1.846016"><ele>276.04</ele><time>2011-01-26T11:56:05Z</time></trkpt><trkpt lat="51.988319" lon="-1.846228"><ele>278.44</ele><time>2011-01-26T11:56:19Z</time></trkpt><trkpt lat="51.988334" lon="-1.846373"><ele>277.96</ele><time>2011-01-26T11:56:29Z</time></trkpt><trkpt lat="51.988341" lon="-1.846461"><ele>278.92</ele><time>2011-01-26T11:56:43Z</time></trkpt><trkpt lat="51.988358" lon="-1.846475"><ele>279.40</ele><time>2011-01-26T11:56:54Z</time></trkpt><trkpt lat="51.988380" lon="-1.846533"><ele>280.84</ele><time>2011-01-26T11:57:15Z</time></trkpt><trkpt lat="51.988392" lon="-1.846752"><ele>283.25</ele><time>2011-01-26T11:57:30Z</time></trkpt><trkpt lat="51.988411" lon="-1.846762"><ele>282.77</ele><time>2011-01-26T11:57:39Z</time></trkpt><trkpt lat="51.988407" lon="-1.846870"><ele>279.40</ele><time>2011-01-26T11:57:53Z</time></trkpt><trkpt lat="51.988432" lon="-1.846902"><ele>278.44</ele><time>2011-01-26T11:58:05Z</time></trkpt><trkpt lat="51.988510" lon="-1.846881"><ele>277.96</ele><time>2011-01-26T11:58:22Z</time></trkpt><trkpt lat="51.988532" lon="-1.846857"><ele>278.44</ele><time>2011-01-26T11:58:33Z</time></trkpt><trkpt lat="51.988567" lon="-1.846862"><ele>278.44</ele><time>2011-01-26T11:58:37Z</time></trkpt><trkpt lat="51.988706" lon="-1.846798"><ele>277.00</ele><time>2011-01-26T11:58:50Z</time></trkpt><trkpt lat="51.989024" lon="-1.846668"><ele>275.07</ele><time>2011-01-26T11:59:14Z</time></trkpt><trkpt lat="51.989252" lon="-1.846549"><ele>271.23</ele><time>2011-01-26T11:59:32Z</time></trkpt><trkpt lat="51.989502" lon="-1.846442"><ele>270.27</ele><time>2011-01-26T11:59:53Z</time></trkpt><trkpt lat="51.989782" lon="-1.846348"><ele>272.67</ele><time>2011-01-26T12:00:14Z</time></trkpt><trkpt lat="51.990076" lon="-1.846276"><ele>272.67</ele><time>2011-01-26T12:00:36Z</time></trkpt><trkpt lat="51.990312" lon="-1.846214"><ele>273.15</ele><time>2011-01-26T12:00:59Z</time></trkpt><trkpt lat="51.990535" lon="-1.846142"><ele>272.19</ele><time>2011-01-26T12:01:20Z</time></trkpt><trkpt lat="51.990686" lon="-1.846065"><ele>270.75</ele><time>2011-01-26T12:01:35Z</time></trkpt><trkpt lat="51.990866" lon="-1.846005"><ele>269.79</ele><time>2011-01-26T12:01:52Z</time></trkpt><trkpt lat="51.991024" lon="-1.845927"><ele>269.31</ele><time>2011-01-26T12:02:08Z</time></trkpt><trkpt lat="51.991231" lon="-1.845838"><ele>267.86</ele><time>2011-01-26T12:02:27Z</time></trkpt><trkpt lat="51.991456" lon="-1.845720"><ele>267.86</ele><time>2011-01-26T12:02:49Z</time></trkpt><trkpt lat="51.991669" lon="-1.845604"><ele>267.38</ele><time>2011-01-26T12:03:11Z</time></trkpt><trkpt lat="51.991869" lon="-1.845498"><ele>268.35</ele><time>2011-01-26T12:03:32Z</time></trkpt><trkpt lat="51.992050" lon="-1.845401"><ele>269.31</ele><time>2011-01-26T12:03:51Z</time></trkpt><trkpt lat="51.992235" lon="-1.845298"><ele>268.83</ele><time>2011-01-26T12:04:09Z</time></trkpt><trkpt lat="51.992446" lon="-1.845187"><ele>268.35</ele><time>2011-01-26T12:04:30Z</time></trkpt><trkpt lat="51.992636" lon="-1.845098"><ele>267.86</ele><time>2011-01-26T12:04:49Z</time></trkpt><trkpt lat="51.992856" lon="-1.844999"><ele>267.86</ele><time>2011-01-26T12:05:10Z</time></trkpt><trkpt lat="51.993122" lon="-1.844907"><ele>266.90</ele><time>2011-01-26T12:05:34Z</time></trkpt><trkpt lat="51.993312" lon="-1.844849"><ele>266.42</ele><time>2011-01-26T12:05:52Z</time></trkpt><trkpt lat="51.993556" lon="-1.844746"><ele>264.98</ele><time>2011-01-26T12:06:16Z</time></trkpt><trkpt lat="51.993790" lon="-1.844652"><ele>263.54</ele><time>2011-01-26T12:06:39Z</time></trkpt><trkpt lat="51.994011" lon="-1.844558"><ele>261.14</ele><time>2011-01-26T12:07:01Z</time></trkpt><trkpt lat="51.994213" lon="-1.844471"><ele>259.69</ele><time>2011-01-26T12:07:21Z</time></trkpt><trkpt lat="51.994424" lon="-1.844365"><ele>259.21</ele><time>2011-01-26T12:07:42Z</time></trkpt><trkpt lat="51.994590" lon="-1.844267"><ele>259.21</ele><time>2011-01-26T12:07:59Z</time></trkpt><trkpt lat="51.994784" lon="-1.844161"><ele>260.17</ele><time>2011-01-26T12:08:19Z</time></trkpt><trkpt lat="51.995042" lon="-1.844064"><ele>261.14</ele><time>2011-01-26T12:08:44Z</time></trkpt><trkpt lat="51.995178" lon="-1.844112"><ele>261.14</ele><time>2011-01-26T12:09:01Z</time></trkpt><trkpt lat="51.995169" lon="-1.844108"><ele>258.25</ele><time>2011-01-26T12:09:18Z</time></trkpt><trkpt lat="51.995176" lon="-1.844106"><ele>258.73</ele><time>2011-01-26T12:10:02Z</time></trkpt><trkpt lat="51.995197" lon="-1.844118"><ele>259.69</ele><time>2011-01-26T12:10:24Z</time></trkpt><trkpt lat="51.995346" lon="-1.844298"><ele>260.17</ele><time>2011-01-26T12:10:43Z</time></trkpt><trkpt lat="51.995531" lon="-1.844540"><ele>260.17</ele><time>2011-01-26T12:11:06Z</time></trkpt><trkpt lat="51.995671" lon="-1.844756"><ele>260.65</ele><time>2011-01-26T12:11:25Z</time></trkpt><trkpt lat="51.995808" lon="-1.844993"><ele>260.17</ele><time>2011-01-26T12:11:44Z</time></trkpt><trkpt lat="51.995958" lon="-1.845275"><ele>260.17</ele><time>2011-01-26T12:12:06Z</time></trkpt><trkpt lat="51.996074" lon="-1.845497"><ele>259.69</ele><time>2011-01-26T12:12:24Z</time></trkpt><trkpt lat="51.996185" lon="-1.845803"><ele>261.14</ele><time>2011-01-26T12:12:44Z</time></trkpt><trkpt lat="51.996284" lon="-1.846132"><ele>262.58</ele><time>2011-01-26T12:13:05Z</time></trkpt><trkpt lat="51.996368" lon="-1.846456"><ele>263.54</ele><time>2011-01-26T12:13:25Z</time></trkpt><trkpt lat="51.996470" lon="-1.846841"><ele>264.98</ele><time>2011-01-26T12:13:48Z</time></trkpt><trkpt lat="51.996564" lon="-1.847168"><ele>265.94</ele><time>2011-01-26T12:14:08Z</time></trkpt><trkpt lat="51.996648" lon="-1.847442"><ele>265.94</ele><time>2011-01-26T12:14:26Z</time></trkpt><trkpt lat="51.996711" lon="-1.847628"><ele>266.90</ele><time>2011-01-26T12:14:40Z</time></trkpt><trkpt lat="51.996706" lon="-1.847620"><ele>266.90</ele><time>2011-01-26T12:14:50Z</time></trkpt><trkpt lat="51.996710" lon="-1.847658"><ele>266.42</ele><time>2011-01-26T12:14:54Z</time></trkpt><trkpt lat="51.996765" lon="-1.847800"><ele>267.38</ele><time>2011-01-26T12:15:10Z</time></trkpt><trkpt lat="51.996780" lon="-1.847877"><ele>267.38</ele><time>2011-01-26T12:15:16Z</time></trkpt><trkpt lat="51.996895" lon="-1.848293"><ele>268.83</ele><time>2011-01-26T12:15:38Z</time></trkpt><trkpt lat="51.996954" lon="-1.848441"><ele>269.31</ele><time>2011-01-26T12:15:52Z</time></trkpt><trkpt lat="51.997038" lon="-1.848769"><ele>270.27</ele><time>2011-01-26T12:16:13Z</time></trkpt><trkpt lat="51.997127" lon="-1.849071"><ele>271.23</ele><time>2011-01-26T12:16:32Z</time></trkpt><trkpt lat="51.997228" lon="-1.849391"><ele>271.23</ele><time>2011-01-26T12:16:52Z</time></trkpt><trkpt lat="51.997328" lon="-1.849706"><ele>272.67</ele><time>2011-01-26T12:17:12Z</time></trkpt><trkpt lat="51.997426" lon="-1.849989"><ele>273.63</ele><time>2011-01-26T12:17:30Z</time></trkpt><trkpt lat="51.997537" lon="-1.850267"><ele>274.11</ele><time>2011-01-26T12:17:49Z</time></trkpt><trkpt lat="51.997677" lon="-1.850514"><ele>275.56</ele><time>2011-01-26T12:18:08Z</time></trkpt><trkpt lat="51.997841" lon="-1.850758"><ele>276.04</ele><time>2011-01-26T12:18:28Z</time></trkpt><trkpt lat="51.997988" lon="-1.850986"><ele>276.04</ele><time>2011-01-26T12:18:47Z</time></trkpt><trkpt lat="51.998151" lon="-1.851279"><ele>276.52</ele><time>2011-01-26T12:19:09Z</time></trkpt><trkpt lat="51.998302" lon="-1.851564"><ele>276.04</ele><time>2011-01-26T12:19:30Z</time></trkpt><trkpt lat="51.998449" lon="-1.851863"><ele>275.56</ele><time>2011-01-26T12:19:51Z</time></trkpt><trkpt lat="51.998619" lon="-1.852188"><ele>274.11</ele><time>2011-01-26T12:20:14Z</time></trkpt><trkpt lat="51.998777" lon="-1.852535"><ele>273.63</ele><time>2011-01-26T12:20:37Z</time></trkpt><trkpt lat="51.998930" lon="-1.852908"><ele>273.15</ele><time>2011-01-26T12:21:01Z</time></trkpt><trkpt lat="51.999081" lon="-1.853258"><ele>271.23</ele><time>2011-01-26T12:21:24Z</time></trkpt><trkpt lat="51.999249" lon="-1.853633"><ele>268.35</ele><time>2011-01-26T12:21:49Z</time></trkpt><trkpt lat="51.999405" lon="-1.853929"><ele>265.46</ele><time>2011-01-26T12:22:10Z</time></trkpt><trkpt lat="51.999594" lon="-1.854264"><ele>264.02</ele><time>2011-01-26T12:22:34Z</time></trkpt><trkpt lat="51.999797" lon="-1.854608"><ele>264.50</ele><time>2011-01-26T12:22:59Z</time></trkpt><trkpt lat="51.999976" lon="-1.854905"><ele>263.54</ele><time>2011-01-26T12:23:21Z</time></trkpt><trkpt lat="52.000107" lon="-1.855121"><ele>264.50</ele><time>2011-01-26T12:23:38Z</time></trkpt><trkpt lat="52.000214" lon="-1.855312"><ele>265.94</ele><time>2011-01-26T12:23:53Z</time></trkpt><trkpt lat="52.000333" lon="-1.855500"><ele>268.35</ele><time>2011-01-26T12:24:08Z</time></trkpt><trkpt lat="52.000453" lon="-1.855718"><ele>269.79</ele><time>2011-01-26T12:24:25Z</time></trkpt><trkpt lat="52.000565" lon="-1.855983"><ele>271.23</ele><time>2011-01-26T12:24:43Z</time></trkpt><trkpt lat="52.000688" lon="-1.856264"><ele>272.19</ele><time>2011-01-26T12:25:02Z</time></trkpt><trkpt lat="52.000846" lon="-1.856559"><ele>271.71</ele><time>2011-01-26T12:25:24Z</time></trkpt><trkpt lat="52.001017" lon="-1.856814"><ele>270.27</ele><time>2011-01-26T12:25:45Z</time></trkpt><trkpt lat="52.001137" lon="-1.857031"><ele>268.83</ele><time>2011-01-26T12:26:04Z</time></trkpt><trkpt lat="52.001117" lon="-1.857042"><ele>269.31</ele><time>2011-01-26T12:26:09Z</time></trkpt><trkpt lat="52.001125" lon="-1.857048"><ele>268.83</ele><time>2011-01-26T12:26:11Z</time></trkpt><trkpt lat="52.001208" lon="-1.857167"><ele>268.35</ele><time>2011-01-26T12:26:21Z</time></trkpt><trkpt lat="52.001229" lon="-1.857236"><ele>268.35</ele><time>2011-01-26T12:26:28Z</time></trkpt><trkpt lat="52.001242" lon="-1.857237"><ele>267.86</ele><time>2011-01-26T12:26:30Z</time></trkpt><trkpt lat="52.001374" lon="-1.857470"><ele>266.42</ele><time>2011-01-26T12:26:48Z</time></trkpt><trkpt lat="52.001504" lon="-1.857744"><ele>264.50</ele><time>2011-01-26T12:27:09Z</time></trkpt><trkpt lat="52.001656" lon="-1.858033"><ele>262.10</ele><time>2011-01-26T12:27:29Z</time></trkpt><trkpt lat="52.001754" lon="-1.858205"><ele>260.65</ele><time>2011-01-26T12:27:43Z</time></trkpt><trkpt lat="52.001867" lon="-1.858334"><ele>258.73</ele><time>2011-01-26T12:27:56Z</time></trkpt><trkpt lat="52.001893" lon="-1.858458"><ele>257.77</ele><time>2011-01-26T12:28:06Z</time></trkpt><trkpt lat="52.001794" lon="-1.858604"><ele>256.81</ele><time>2011-01-26T12:28:21Z</time></trkpt><trkpt lat="52.001709" lon="-1.858753"><ele>254.41</ele><time>2011-01-26T12:28:36Z</time></trkpt><trkpt lat="52.001693" lon="-1.858772"><ele>253.93</ele><time>2011-01-26T12:28:38Z</time></trkpt><trkpt lat="52.001650" lon="-1.858912"><ele>251.04</ele><time>2011-01-26T12:28:53Z</time></trkpt><trkpt lat="52.001545" lon="-1.859070"><ele>251.52</ele><time>2011-01-26T12:29:11Z</time></trkpt><trkpt lat="52.001478" lon="-1.859199"><ele>249.60</ele><time>2011-01-26T12:29:24Z</time></trkpt><trkpt lat="52.001407" lon="-1.859355"><ele>246.23</ele><time>2011-01-26T12:29:36Z</time></trkpt><trkpt lat="52.001396" lon="-1.859589"><ele>244.79</ele><time>2011-01-26T12:29:56Z</time></trkpt><trkpt lat="52.001385" lon="-1.859815"><ele>245.75</ele><time>2011-01-26T12:30:10Z</time></trkpt><trkpt lat="52.001429" lon="-1.860202"><ele>243.83</ele><time>2011-01-26T12:30:29Z</time></trkpt><trkpt lat="52.001438" lon="-1.860218"><ele>243.83</ele><time>2011-01-26T12:30:31Z</time></trkpt><trkpt lat="52.001473" lon="-1.860293"><ele>242.87</ele><time>2011-01-26T12:30:38Z</time></trkpt><trkpt lat="52.001681" lon="-1.860461"><ele>239.51</ele><time>2011-01-26T12:30:59Z</time></trkpt><trkpt lat="52.001891" lon="-1.860506"><ele>232.78</ele><time>2011-01-26T12:31:18Z</time></trkpt><trkpt lat="52.001925" lon="-1.860565"><ele>232.78</ele><time>2011-01-26T12:31:24Z</time></trkpt><trkpt lat="52.001987" lon="-1.860884"><ele>231.33</ele><time>2011-01-26T12:31:43Z</time></trkpt><trkpt lat="52.002126" lon="-1.861136"><ele>229.89</ele><time>2011-01-26T12:32:00Z</time></trkpt><trkpt lat="52.002186" lon="-1.861170"><ele>226.53</ele><time>2011-01-26T12:32:17Z</time></trkpt><trkpt lat="52.002185" lon="-1.861170"><ele>226.53</ele><time>2011-01-26T12:32:26Z</time></trkpt></trkseg></trk></gpx>